createdAt,value
2023-05-13T04:22:56.692Z,13.73
2023-05-13T04:25:23.935Z,13.94
2023-05-13T04:27:51.086Z,14.00
2023-05-13T04:30:25.490Z,14.07
2023-05-13T04:32:54.311Z,14.10
2023-05-13T04:35:21.419Z,14.15
2023-05-13T04:37:52.356Z,14.20
2023-05-13T04:40:20.181Z,14.25
2023-05-13T04:42:54.504Z,14.31
2023-05-13T04:45:25.315Z,14.39
2023-05-13T04:47:52.600Z,14.46
2023-05-13T04:50:19.929Z,14.55
2023-05-13T04:52:48.653Z,14.65
2023-05-13T04:55:17.085Z,14.73
2023-05-13T04:57:43.976Z,14.81
2023-05-13T05:00:11.667Z,14.90
2023-05-13T05:02:40.022Z,15.00
2023-05-13T05:05:07.110Z,15.10
2023-05-13T05:07:34.314Z,15.35
2023-05-13T05:10:01.969Z,15.92
2023-05-13T05:12:32.332Z,16.75
2023-05-13T05:14:59.213Z,17.70
2023-05-13T05:17:32.652Z,18.65
2023-05-13T05:20:02.788Z,19.50
2023-05-13T05:22:29.757Z,20.23
2023-05-13T05:24:56.938Z,20.91
2023-05-13T05:27:25.283Z,21.51
2023-05-13T05:29:52.315Z,22.03
2023-05-13T05:32:19.581Z,22.54
2023-05-13T05:34:46.465Z,23.03
2023-05-13T05:37:13.329Z,23.50
2023-05-13T05:39:41.842Z,23.87
2023-05-13T05:42:08.846Z,23.97
2023-05-13T05:44:36.240Z,23.64
2023-05-13T05:47:03.342Z,23.11
2023-05-13T05:49:30.838Z,22.56
2023-05-13T05:51:58.610Z,21.97
2023-05-13T05:54:27.766Z,21.42
2023-05-13T05:56:55.358Z,20.93
2023-05-13T05:59:22.571Z,20.46
2023-05-13T06:01:50.214Z,19.95
2023-05-13T06:04:17.548Z,19.57
2023-05-13T06:06:45.718Z,19.28
2023-05-13T06:09:13.546Z,19.03
2023-05-13T06:11:40.611Z,18.75
2023-05-13T06:14:10.622Z,18.53
2023-05-13T06:16:37.908Z,18.35
2023-05-13T06:19:06.430Z,18.21
2023-05-13T06:21:34.721Z,18.10
2023-05-13T06:24:03.253Z,17.99
2023-05-13T06:26:31.943Z,17.83
2023-05-13T06:29:00.137Z,17.62
2023-05-13T06:31:27.768Z,17.49
2023-05-13T06:33:54.615Z,17.44
2023-05-13T06:36:26.384Z,17.42
2023-05-13T06:38:53.917Z,17.39
2023-05-13T06:41:22.834Z,17.36
2023-05-13T06:43:50.749Z,17.35
2023-05-13T06:46:21.684Z,17.34
2023-05-13T06:48:52.404Z,17.34
2023-05-13T06:51:19.395Z,17.35
2023-05-13T06:53:46.388Z,17.35
2023-05-13T06:56:13.556Z,17.35
2023-05-13T06:58:40.620Z,17.35
2023-05-13T07:01:09.005Z,17.35
2023-05-13T07:03:36.627Z,17.37
2023-05-13T07:06:04.518Z,17.41
2023-05-13T07:08:31.385Z,17.48
2023-05-13T07:10:58.637Z,17.54
2023-05-13T07:13:27.650Z,17.55
2023-05-13T07:15:55.232Z,17.55
2023-05-13T07:18:22.590Z,17.56
2023-05-13T07:20:49.485Z,17.62
2023-05-13T07:23:16.371Z,17.70
2023-05-13T07:25:43.831Z,17.78
2023-05-13T07:28:10.881Z,17.82
2023-05-13T07:30:40.284Z,17.87
2023-05-13T07:33:07.289Z,17.90
2023-05-13T07:35:34.157Z,17.93
2023-05-13T07:38:01.136Z,17.96
2023-05-13T07:40:28.021Z,18.04
2023-05-13T07:42:54.866Z,18.09
2023-05-13T07:45:22.379Z,18.12
2023-05-13T07:47:49.840Z,18.15
2023-05-13T07:50:17.048Z,18.21
2023-05-13T07:52:44.274Z,18.24
2023-05-13T07:55:11.557Z,18.29
2023-05-13T07:57:38.431Z,18.33
2023-05-13T08:00:06.340Z,18.36
2023-05-13T08:02:41.478Z,18.41
2023-05-13T08:05:08.589Z,18.44
2023-05-13T08:07:35.574Z,18.49
2023-05-13T08:10:02.686Z,18.55
2023-05-13T08:12:29.588Z,18.60
2023-05-13T08:14:56.594Z,18.67
2023-05-13T08:17:23.570Z,18.93
2023-05-13T08:19:50.636Z,19.40
2023-05-13T08:22:17.479Z,20.12
2023-05-13T08:24:45.547Z,20.99
2023-05-13T08:27:13.214Z,21.86
2023-05-13T08:29:40.920Z,22.50
2023-05-13T08:32:07.852Z,23.12
2023-05-13T08:34:35.588Z,23.84
2023-05-13T08:37:02.584Z,24.48
2023-05-13T08:39:29.546Z,24.87
2023-05-13T08:41:57.823Z,25.08
2023-05-13T08:44:29.279Z,25.34
2023-05-13T08:47:11.684Z,25.51
2023-05-13T08:49:38.475Z,25.65
2023-05-13T08:52:06.145Z,25.88
2023-05-13T08:54:32.966Z,26.21
2023-05-13T09:02:55.050Z,27.11
2023-05-13T09:05:22.351Z,27.26
2023-05-13T09:07:49.655Z,27.51
2023-05-13T09:10:16.917Z,27.65
2023-05-13T09:12:47.014Z,27.82
2023-05-13T09:15:26.606Z,28.02
2023-05-13T09:17:59.762Z,28.01
2023-05-13T09:20:26.927Z,28.18
2023-05-13T09:23:17.883Z,28.53
2023-05-13T09:25:44.916Z,28.60
2023-05-13T09:28:14.459Z,28.68
2023-05-13T09:30:46.214Z,28.65
2023-05-13T09:33:19.970Z,28.69
2023-05-13T09:35:52.236Z,28.79
2023-05-13T09:38:20.705Z,28.64
2023-05-13T09:41:00.156Z,28.71
2023-05-13T09:43:29.031Z,28.31
2023-05-13T09:45:57.458Z,27.33
2023-05-13T09:48:28.578Z,26.39
2023-05-13T09:50:58.004Z,26.18
2023-05-13T09:53:28.507Z,26.39
2023-05-13T09:55:56.913Z,26.60
2023-05-13T09:58:25.431Z,26.86
2023-05-13T10:00:53.352Z,27.32
2023-05-13T10:03:20.725Z,27.77
2023-05-13T10:05:48.520Z,28.00
2023-05-13T10:08:15.937Z,27.89
2023-05-13T10:10:47.948Z,27.95
2023-05-13T10:13:16.014Z,28.29
2023-05-13T10:15:50.493Z,28.67
2023-05-13T10:18:19.878Z,28.65
2023-05-13T10:20:47.468Z,28.36
2023-05-13T10:23:16.370Z,28.12
2023-05-13T10:25:43.316Z,27.95
2023-05-13T10:28:10.703Z,27.67
2023-05-13T10:30:39.224Z,27.30
2023-05-13T10:33:06.309Z,27.30
2023-05-13T10:35:38.515Z,27.30
2023-05-13T10:38:30.060Z,27.09
2023-05-13T10:41:15.182Z,26.46
2023-05-13T10:43:42.134Z,26.05
2023-05-13T10:46:12.531Z,26.10
2023-05-13T10:48:41.648Z,26.34
2023-05-13T10:51:09.700Z,26.74
2023-05-13T10:53:44.262Z,27.21
2023-05-13T10:56:12.149Z,27.54
2023-05-13T10:58:39.962Z,27.39
2023-05-13T11:01:28.469Z,27.21
2023-05-13T11:03:57.280Z,27.43
2023-05-13T11:06:29.337Z,27.91
2023-05-13T11:08:56.501Z,28.56
2023-05-13T11:11:23.567Z,28.87
2023-05-13T11:14:03.987Z,28.91
2023-05-13T11:16:31.060Z,28.95
2023-05-13T11:18:58.255Z,29.21
2023-05-13T11:21:41.187Z,29.40
2023-05-13T11:24:08.247Z,29.80
2023-05-13T11:26:51.746Z,30.19
2023-05-13T11:29:37.103Z,30.33
2023-05-13T11:32:05.166Z,29.81
2023-05-13T11:34:32.328Z,29.75
2023-05-13T11:37:08.889Z,30.02
2023-05-13T11:39:36.375Z,30.01
2023-05-13T11:42:08.698Z,29.55
2023-05-13T11:44:36.074Z,29.51
2023-05-13T11:47:06.344Z,29.18
2023-05-13T11:49:43.426Z,28.63
2023-05-13T11:52:14.167Z,28.43
2023-05-13T11:54:42.666Z,28.24
2023-05-13T11:57:16.613Z,27.79
2023-05-13T11:59:54.337Z,27.58
2023-05-13T12:02:22.717Z,27.75
2023-05-13T12:04:51.007Z,27.71
2023-05-13T12:07:24.849Z,27.60
2023-05-13T12:09:52.692Z,27.23
2023-05-13T12:12:19.842Z,26.70
2023-05-13T12:14:50.222Z,26.32
2023-05-13T12:17:18.177Z,26.00
2023-05-13T12:20:12.112Z,25.66
2023-05-13T12:22:45.398Z,25.43
2023-05-13T12:25:48.012Z,25.25
2023-05-13T12:28:21.679Z,25.08
2023-05-13T12:30:56.831Z,24.97
2023-05-13T12:33:24.805Z,24.87
2023-05-13T12:35:53.417Z,24.70
2023-05-13T12:38:24.538Z,24.58
2023-05-13T12:40:51.676Z,24.42
2023-05-13T12:43:19.748Z,24.23
2023-05-13T12:45:47.384Z,24.05
2023-05-13T12:48:14.835Z,23.97
2023-05-13T12:50:41.661Z,24.02
2023-05-13T12:53:08.521Z,24.21
2023-05-13T12:55:40.094Z,24.53
2023-05-13T12:58:11.022Z,24.85
2023-05-13T13:00:38.133Z,25.17
2023-05-13T13:03:05.193Z,25.60
2023-05-13T13:05:32.105Z,26.03
2023-05-13T13:08:01.140Z,26.19
2023-05-13T13:10:28.557Z,26.27
2023-05-13T13:12:55.349Z,26.38
2023-05-13T13:15:22.559Z,26.51
2023-05-13T13:17:49.645Z,26.73
2023-05-13T13:20:16.457Z,27.00
2023-05-13T13:22:43.807Z,27.21
2023-05-13T13:25:11.143Z,27.40
2023-05-13T13:27:38.804Z,27.53
2023-05-13T13:30:06.478Z,27.32
2023-05-13T13:32:35.414Z,27.10
2023-05-13T13:35:05.470Z,27.04
2023-05-13T13:37:32.322Z,26.95
2023-05-13T13:39:59.290Z,26.89
2023-05-13T13:42:40.329Z,26.67
2023-05-13T13:45:11.216Z,26.23
2023-05-13T13:47:38.552Z,25.81
2023-05-13T13:50:06.522Z,25.39
2023-05-13T13:52:33.493Z,24.98
2023-05-13T13:55:00.712Z,24.57
2023-05-13T13:57:27.682Z,24.20
2023-05-13T13:59:55.196Z,23.84
2023-05-13T14:02:22.243Z,23.50
2023-05-13T14:04:49.180Z,23.16
2023-05-13T14:07:16.176Z,22.86
2023-05-13T14:09:43.149Z,22.58
2023-05-13T14:12:10.047Z,22.37
2023-05-13T14:14:36.751Z,22.26
2023-05-13T14:17:04.248Z,22.21
2023-05-13T14:19:31.164Z,22.20
2023-05-13T14:21:58.297Z,22.22
2023-05-13T14:24:25.076Z,22.30
2023-05-13T14:26:51.963Z,22.39
2023-05-13T14:29:18.984Z,22.45
2023-05-13T14:31:45.877Z,22.47
2023-05-13T14:34:12.619Z,22.49
2023-05-13T14:36:40.992Z,22.53
2023-05-13T14:39:10.573Z,22.56
2023-05-13T14:41:37.557Z,22.57
2023-05-13T14:44:04.614Z,22.59
2023-05-13T14:46:33.945Z,22.61
2023-05-13T14:49:01.822Z,22.62
2023-05-13T14:51:28.731Z,22.61
2023-05-13T14:53:55.606Z,22.61
2023-05-13T14:56:22.452Z,22.60
2023-05-13T14:58:50.076Z,22.61
2023-05-13T15:01:17.427Z,22.62
2023-05-13T15:03:44.205Z,22.69
2023-05-13T15:06:11.147Z,22.82
2023-05-13T15:08:38.049Z,22.94
2023-05-13T15:11:08.815Z,23.02
2023-05-13T15:13:36.930Z,23.13
2023-05-13T15:16:04.001Z,23.23
2023-05-13T15:18:31.303Z,23.33
2023-05-13T15:20:58.160Z,23.38
2023-05-13T15:23:25.046Z,23.44
2023-05-13T15:25:52.290Z,23.48
2023-05-13T15:28:19.052Z,23.52
2023-05-13T15:30:45.844Z,23.55
2023-05-13T15:33:12.776Z,23.54
2023-05-13T15:35:39.604Z,23.51
2023-05-13T15:38:06.331Z,23.50
2023-05-13T15:40:33.319Z,23.42
2023-05-13T15:43:00.387Z,23.35
2023-05-13T15:45:27.350Z,23.35
2023-05-13T15:47:54.244Z,23.35
2023-05-13T15:50:21.375Z,23.33
2023-05-13T15:52:48.248Z,23.30
2023-05-13T15:55:15.170Z,23.29
2023-05-13T15:57:42.022Z,23.28
2023-05-13T16:00:09.689Z,23.24
2023-05-13T16:02:39.429Z,23.18
2023-05-13T16:05:07.115Z,23.15
2023-05-13T16:07:33.953Z,23.05
2023-05-13T16:10:01.843Z,22.92
2023-05-13T16:12:32.329Z,22.80
2023-05-13T16:14:59.183Z,22.69
2023-05-13T16:17:25.962Z,22.63
2023-05-13T16:19:52.915Z,22.58
2023-05-13T16:22:33.698Z,22.52
2023-05-13T16:25:01.624Z,22.48
2023-05-13T16:27:28.847Z,22.45
2023-05-13T16:29:57.650Z,22.42
2023-05-13T16:32:24.818Z,22.38
2023-05-13T16:34:52.061Z,22.32
2023-05-13T16:37:18.818Z,22.24
2023-05-13T16:39:45.811Z,22.16
2023-05-13T16:42:12.715Z,22.07
2023-05-13T16:44:40.703Z,21.98
2023-05-13T16:47:09.183Z,21.89
2023-05-13T16:49:36.522Z,21.80
2023-05-13T16:52:06.737Z,21.73
2023-05-13T16:54:33.717Z,21.68
2023-05-13T16:57:01.727Z,21.61
2023-05-13T16:59:28.524Z,21.53
2023-05-13T17:01:56.130Z,21.42
2023-05-13T17:04:22.915Z,21.33
2023-05-13T17:06:51.055Z,21.26
2023-05-13T17:09:17.863Z,21.20
2023-05-13T17:11:45.045Z,21.15
2023-05-13T17:14:11.772Z,21.07
2023-05-13T17:16:39.243Z,21.00
2023-05-13T17:19:06.102Z,20.93
2023-05-13T17:21:32.893Z,20.85
2023-05-13T17:23:59.624Z,20.78
2023-05-13T17:26:26.515Z,20.71
2023-05-13T17:28:53.893Z,20.65
2023-05-13T17:31:20.701Z,20.58
2023-05-13T17:33:47.739Z,20.52
2023-05-13T17:36:15.143Z,20.45
2023-05-13T17:38:42.012Z,20.37
2023-05-13T17:41:08.853Z,20.29
2023-05-13T17:43:36.421Z,20.21
2023-05-13T17:46:03.887Z,20.12
2023-05-13T17:48:31.771Z,20.04
2023-05-13T17:50:59.135Z,19.97
2023-05-13T17:53:27.832Z,19.90
2023-05-13T17:55:54.724Z,19.85
2023-05-13T17:58:21.565Z,19.78
2023-05-13T18:00:48.938Z,19.75
2023-05-13T18:03:16.399Z,19.69
2023-05-13T18:05:43.404Z,19.64
2023-05-13T18:08:10.520Z,19.57
2023-05-13T18:10:37.392Z,19.51
2023-05-13T18:13:04.361Z,19.46
2023-05-13T18:15:31.143Z,19.40
2023-05-13T18:17:57.875Z,19.35
2023-05-13T18:20:24.796Z,19.30
2023-05-13T18:22:52.153Z,19.23
2023-05-13T18:25:19.019Z,19.17
2023-05-13T18:27:45.884Z,19.11
2023-05-13T18:30:13.069Z,19.03
2023-05-13T18:32:41.294Z,18.95
2023-05-13T18:35:09.346Z,18.84
2023-05-13T18:37:36.955Z,18.76
2023-05-13T18:40:04.460Z,18.68
2023-05-13T18:42:31.410Z,18.61
2023-05-13T18:44:58.857Z,18.53
2023-05-13T18:47:27.715Z,18.47
2023-05-13T18:49:54.677Z,18.40
2023-05-13T18:52:21.549Z,18.36
2023-05-13T18:54:48.498Z,18.32
2023-05-13T18:57:16.803Z,18.28
2023-05-13T18:59:43.749Z,18.23
2023-05-13T19:02:10.940Z,18.16
2023-05-13T19:04:38.315Z,18.12
2023-05-13T19:07:07.385Z,18.08
2023-05-13T19:09:36.396Z,18.05
2023-05-13T19:12:03.384Z,18.03
2023-05-13T19:14:30.126Z,17.99
2023-05-13T19:16:57.067Z,17.94
2023-05-13T19:19:24.378Z,17.90
2023-05-13T19:21:51.400Z,17.87
2023-05-13T19:24:18.465Z,17.85
2023-05-13T19:26:45.242Z,17.83
2023-05-13T19:29:13.012Z,17.81
2023-05-13T19:31:40.175Z,17.82
2023-05-13T19:34:10.203Z,17.80
2023-05-13T19:36:40.890Z,17.80
2023-05-13T19:39:10.564Z,17.81
2023-05-13T19:41:39.751Z,17.80
2023-05-13T19:44:09.838Z,17.79
2023-05-13T19:46:39.170Z,17.77
2023-05-13T19:49:09.962Z,17.75
2023-05-13T19:51:39.230Z,17.74
2023-05-13T19:54:11.311Z,17.73
2023-05-13T19:56:42.350Z,17.72
2023-05-13T19:59:13.510Z,17.71
2023-05-13T20:01:45.316Z,17.71
2023-05-13T20:04:14.411Z,17.71
2023-05-13T20:06:45.350Z,17.72
2023-05-13T20:09:16.288Z,17.73
2023-05-13T20:11:47.276Z,17.73
2023-05-13T20:14:27.450Z,17.73
2023-05-13T20:16:57.274Z,17.71
2023-05-13T20:19:28.333Z,17.71
2023-05-13T20:21:58.647Z,17.69
2023-05-13T20:24:28.268Z,17.67
2023-05-13T20:26:59.302Z,17.65
2023-05-13T20:29:34.825Z,17.61
2023-05-13T20:32:05.540Z,17.58
2023-05-13T20:40:38.949Z,17.57
2023-05-13T20:43:07.640Z,17.54
2023-05-13T20:45:39.217Z,17.53
2023-05-13T20:48:06.632Z,17.50
2023-05-13T20:50:33.479Z,17.47
2023-05-13T20:53:00.714Z,17.45
2023-05-13T20:55:27.728Z,17.43
2023-05-13T20:57:54.639Z,17.42
2023-05-13T21:00:22.046Z,17.41
2023-05-13T21:02:50.482Z,17.39
2023-05-13T21:05:17.636Z,17.37
2023-05-13T21:07:44.440Z,17.35
2023-05-13T21:10:11.324Z,17.33
2023-05-13T21:12:38.119Z,17.32
2023-05-13T21:15:05.517Z,17.31
2023-05-13T21:17:33.664Z,17.30
2023-05-13T21:20:00.558Z,17.30
